sensor_id;sensor_type;location;lat;lon;timestamp;pressure;altitude;pressure_sealevel;temperature;humidity
4972;BME280;2501;51.214;6.768;2022-10-16T00:01:20;100827.56;;;13.51;98.96
4972;BME280;2501;51.214;6.768;2022-10-16T00:03:49;100827.59;;;13.48;98.88
4972;BME280;2501;51.214;6.768;2022-10-16T00:06:21;100823.22;;;13.50;98.74
4972;BME280;2501;51.214;6.768;2022-10-16T00:08:50;100836.34;;;13.53;98.60
4972;BME280;2501;51.214;6.768;2022-10-16T00:11:20;100836.34;;;13.51;98.50
4972;BME280;2501;51.214;6.768;2022-10-16T00:13:50;100821.47;;;13.46;98.72
4972;BME280;2501;51.214;6.768;2022-10-16T00:16:19;100841.69;;;13.42;99.32
4972;BME280;2501;51.214;6.768;2022-10-16T00:18:48;100832.94;;;13.33;99.33
4972;BME280;2501;51.214;6.768;2022-10-16T00:21:21;100848.75;;;13.30;99.66
4972;BME280;2501;51.214;6.768;2022-10-16T00:23:51;100849.66;;;13.27;99.99
4972;BME280;2501;51.214;6.768;2022-10-16T00:26:20;100837.38;;;13.23;100.00
4972;BME280;2501;51.214;6.768;2022-10-16T00:28:49;100846.13;;;13.28;100.00
4972;BME280;2501;51.214;6.768;2022-10-16T00:31:19;100840.00;;;13.21;100.00
4972;BME280;2501;51.214;6.768;2022-10-16T00:33:48;100837.34;;;13.26;100.00
4972;BME280;2501;51.214;6.768;2022-10-16T00:36:21;100830.34;;;13.17;100.00
4972;BME280;2501;51.214;6.768;2022-10-16T00:38:50;100837.38;;;13.18;100.00
4972;BME280;2501;51.214;6.768;2022-10-16T00:41:21;100825.97;;;13.12;100.00
4972;BME280;2501;51.214;6.768;2022-10-16T00:43:51;100824.22;;;13.11;100.00
4972;BME280;2501;51.214;6.768;2022-10-16T00:46:22;100832.13;;;13.09;100.00
4972;BME280;2501;51.214;6.768;2022-10-16T00:48:54;100820.72;;;13.06;100.00
4972;BME280;2501;51.214;6.768;2022-10-16T00:51:29;100819.81;;;13.05;100.00
4972;BME280;2501;51.214;6.768;2022-10-16T00:53:59;100818.97;;;13.00;100.00
4972;BME280;2501;51.214;6.768;2022-10-16T00:56:28;100816.31;;;13.02;100.00
4972;BME280;2501;51.214;6.768;2022-10-16T00:58:57;100811.97;;;12.92;100.00
4972;BME280;2501;51.214;6.768;2022-10-16T01:01:27;100826.03;;;12.83;100.00
4972;BME280;2501;51.214;6.768;2022-10-16T01:03:56;100822.50;;;12.84;100.00
4972;BME280;2501;51.214;6.768;2022-10-16T01:06:33;100817.28;;;12.81;100.00
4972;BME280;2501;51.214;6.768;2022-10-16T01:09:11;100826.94;;;12.73;100.00
4972;BME280;2501;51.214;6.768;2022-10-16T01:11:48;100833.91;;;12.83;100.00
4972;BME280;2501;51.214;6.768;2022-10-16T01:14:22;100840.94;;;12.85;100.00
4972;BME280;2501;51.214;6.768;2022-10-16T01:16:56;100840.94;;;12.95;100.00
4972;BME280;2501;51.214;6.768;2022-10-16T01:19:43;100837.44;;;12.88;100.00
4972;BME280;2501;51.214;6.768;2022-10-16T01:22:20;100839.19;;;12.87;100.00
4972;BME280;2501;51.214;6.768;2022-10-16T01:24:54;100851.47;;;12.87;100.00
4972;BME280;2501;51.214;6.768;2022-10-16T01:27:27;100847.09;;;12.78;100.00
4972;BME280;2501;51.214;6.768;2022-10-16T01:30:02;100833.91;;;12.84;100.00
4972;BME280;2501;51.214;6.768;2022-10-16T01:32:37;100843.56;;;12.85;100.00
4972;BME280;2501;51.214;6.768;2022-10-16T01:35:10;100841.81;;;12.83;100.00
4972;BME280;2501;51.214;6.768;2022-10-16T01:37:43;100838.34;;;12.79;100.00
4972;BME280;2501;51.214;6.768;2022-10-16T01:40:16;100834.81;;;12.73;100.00
4972;BME280;2501;51.214;6.768;2022-10-16T01:42:53;100840.97;;;12.76;100.00
4972;BME280;2501;51.214;6.768;2022-10-16T01:45:23;100836.59;;;12.75;100.00
4972;BME280;2501;51.214;6.768;2022-10-16T01:47:53;100842.72;;;12.79;100.00
4972;BME280;2501;51.214;6.768;2022-10-16T01:50:21;100845.31;;;12.82;100.00
4972;BME280;2501;51.214;6.768;2022-10-16T01:52:53;100854.09;;;12.84;100.00
4972;BME280;2501;51.214;6.768;2022-10-16T01:55:26;100851.47;;;12.85;100.00
4972;BME280;2501;51.214;6.768;2022-10-16T01:58:01;100847.06;;;12.87;100.00
4972;BME280;2501;51.214;6.768;2022-10-16T02:00:31;100854.97;;;12.90;100.00
4972;BME280;2501;51.214;6.768;2022-10-16T02:03:01;100845.31;;;12.93;100.00
4972;BME280;2501;51.214;6.768;2022-10-16T02:05:34;100849.72;;;12.94;100.00
4972;BME280;2501;51.214;6.768;2022-10-16T02:08:05;100843.56;;;12.92;100.00
4972;BME280;2501;51.214;6.768;2022-10-16T02:10:35;100844.44;;;12.90;100.00
4972;BME280;2501;51.214;6.768;2022-10-16T02:13:10;100849.72;;;12.94;100.00
4972;BME280;2501;51.214;6.768;2022-10-16T02:15:40;100855.84;;;12.94;100.00
4972;BME280;2501;51.214;6.768;2022-10-16T02:18:09;100858.50;;;12.96;100.00
4972;BME280;2501;51.214;6.768;2022-10-16T02:20:43;100853.22;;;12.93;100.00
4972;BME280;2501;51.214;6.768;2022-10-16T02:23:22;100857.59;;;12.92;100.00
4972;BME280;2501;51.214;6.768;2022-10-16T02:25:54;100859.38;;;12.85;100.00
4972;BME280;2501;51.214;6.768;2022-10-16T02:28:32;100860.25;;;12.86;100.00
4972;BME280;2501;51.214;6.768;2022-10-16T02:31:07;100855.84;;;12.85;100.00
4972;BME280;2501;51.214;6.768;2022-10-16T02:33:38;100862.00;;;12.85;100.00
4972;BME280;2501;51.214;6.768;2022-10-16T02:36:08;100860.19;;;13.00;100.00
4972;BME280;2501;51.214;6.768;2022-10-16T02:38:37;100869.84;;;13.10;100.00
4972;BME280;2501;51.214;6.768;2022-10-16T02:41:06;100868.09;;;13.10;100.00
4972;BME280;2501;51.214;6.768;2022-10-16T02:43:38;100859.31;;;13.19;99.58
4972;BME280;2501;51.214;6.768;2022-10-16T02:46:06;100859.31;;;13.20;99.20
4972;BME280;2501;51.214;6.768;2022-10-16T02:48:34;100850.53;;;13.24;98.39
4972;BME280;2501;51.214;6.768;2022-10-16T02:51:03;100854.03;;;13.23;97.80
4972;BME280;2501;51.214;6.768;2022-10-16T02:53:31;100854.03;;;13.27;97.40
4972;BME280;2501;51.214;6.768;2022-10-16T02:56:00;100861.06;;;13.28;97.25
4972;BME280;2501;51.214;6.768;2022-10-16T02:58:28;100863.69;;;13.31;96.83
4972;BME280;2501;51.214;6.768;2022-10-16T03:00:59;100861.94;;;13.30;96.59
4972;BME280;2501;51.214;6.768;2022-10-16T03:03:28;100858.44;;;13.26;96.70
4972;BME280;2501;51.214;6.768;2022-10-16T03:05:56;100860.19;;;13.24;96.58
4972;BME280;2501;51.214;6.768;2022-10-16T03:08:24;100862.81;;;13.19;96.72
4972;BME280;2501;51.214;6.768;2022-10-16T03:10:53;100861.06;;;13.18;96.68
4972;BME280;2501;51.214;6.768;2022-10-16T03:13:21;100859.31;;;13.11;96.96
4972;BME280;2501;51.214;6.768;2022-10-16T03:15:50;100860.19;;;13.10;97.02
4972;BME280;2501;51.214;6.768;2022-10-16T03:18:21;100854.94;;;13.09;97.31
4972;BME280;2501;51.214;6.768;2022-10-16T03:20:49;100854.94;;;13.09;97.23
4972;BME280;2501;51.214;6.768;2022-10-16T03:23:18;100852.31;;;13.09;97.14
4972;BME280;2501;51.214;6.768;2022-10-16T03:25:46;100849.66;;;13.10;96.65
4972;BME280;2501;51.214;6.768;2022-10-16T03:28:14;100851.41;;;13.13;96.34
4972;BME280;2501;51.214;6.768;2022-10-16T03:30:43;100856.69;;;13.11;96.04
4972;BME280;2501;51.214;6.768;2022-10-16T03:33:12;100860.19;;;13.07;96.25
4972;BME280;2501;51.214;6.768;2022-10-16T03:35:43;100858.44;;;13.05;96.16
4972;BME280;2501;51.214;6.768;2022-10-16T03:38:18;100868.09;;;13.03;96.52
4972;BME280;2501;51.214;6.768;2022-10-16T03:40:47;100869.03;;;12.99;96.36
4972;BME280;2501;51.214;6.768;2022-10-16T03:43:15;100867.25;;;12.96;96.50
4972;BME280;2501;51.214;6.768;2022-10-16T03:45:44;100869.03;;;12.99;96.27
4972;BME280;2501;51.214;6.768;2022-10-16T03:48:12;100869.91;;;12.90;96.72
4972;BME280;2501;51.214;6.768;2022-10-16T03:50:43;100869.00;;;12.83;96.83
4972;BME280;2501;51.214;6.768;2022-10-16T03:53:13;100872.56;;;12.81;96.99
4972;BME280;2501;51.214;6.768;2022-10-16T03:55:42;100877.78;;;12.82;97.41
4972;BME280;2501;51.214;6.768;2022-10-16T03:58:11;100875.19;;;12.79;97.18
4972;BME280;2501;51.214;6.768;2022-10-16T04:00:40;100876.06;;;12.69;97.04
4972;BME280;2501;51.214;6.768;2022-10-16T04:03:09;100883.06;;;12.72;97.78
4972;BME280;2501;51.214;6.768;2022-10-16T04:05:38;100886.56;;;12.69;97.81
4972;BME280;2501;51.214;6.768;2022-10-16T04:08:09;100892.72;;;12.65;97.81
4972;BME280;2501;51.214;6.768;2022-10-16T04:10:38;100886.59;;;12.55;98.05
4972;BME280;2501;51.214;6.768;2022-10-16T04:13:06;100891.84;;;12.54;98.21
4972;BME280;2501;51.214;6.768;2022-10-16T04:15:34;100895.34;;;12.53;98.88
4972;BME280;2501;51.214;6.768;2022-10-16T04:18:03;100899.75;;;12.52;98.90
4972;BME280;2501;51.214;6.768;2022-10-16T04:20:32;100904.13;;;12.52;99.16
4972;BME280;2501;51.214;6.768;2022-10-16T04:23:01;100905.03;;;12.46;99.14
4972;BME280;2501;51.214;6.768;2022-10-16T04:25:32;100913.78;;;12.51;99.31
4972;BME280;2501;51.214;6.768;2022-10-16T04:28:01;100913.75;;;12.48;99.17
4972;BME280;2501;51.214;6.768;2022-10-16T04:30:29;100926.03;;;12.49;99.17
4972;BME280;2501;51.214;6.768;2022-10-16T04:32:58;100932.19;;;12.50;99.04
4972;BME280;2501;51.214;6.768;2022-10-16T04:35:27;100923.41;;;12.42;99.05
4972;BME280;2501;51.214;6.768;2022-10-16T04:37:57;100932.16;;;12.35;99.69
4972;BME280;2501;51.214;6.768;2022-10-16T04:40:25;100919.88;;;12.32;100.00
4972;BME280;2501;51.214;6.768;2022-10-16T04:42:56;100914.63;;;12.31;100.00
4972;BME280;2501;51.214;6.768;2022-10-16T04:45:25;100898.00;;;12.29;100.00
4972;BME280;2501;51.214;6.768;2022-10-16T04:47:56;100915.50;;;12.31;100.00
4972;BME280;2501;51.214;6.768;2022-10-16T04:50:25;100922.53;;;12.37;100.00
4972;BME280;2501;51.214;6.768;2022-10-16T04:52:54;100934.81;;;12.36;100.00
4972;BME280;2501;51.214;6.768;2022-10-16T04:55:22;100939.19;;;12.36;100.00
4972;BME280;2501;51.214;6.768;2022-10-16T04:57:50;100947.97;;;12.41;99.95
4972;BME280;2501;51.214;6.768;2022-10-16T05:00:21;100946.22;;;12.46;99.68
4972;BME280;2501;51.214;6.768;2022-10-16T05:02:50;100944.47;;;12.45;99.60
4972;BME280;2501;51.214;6.768;2022-10-16T05:05:18;100949.72;;;12.43;99.35
4972;BME280;2501;51.214;6.768;2022-10-16T05:07:47;100944.47;;;12.40;99.25
4972;BME280;2501;51.214;6.768;2022-10-16T05:10:16;100944.44;;;12.36;99.42
4972;BME280;2501;51.214;6.768;2022-10-16T05:12:44;100952.34;;;12.36;99.48
4972;BME280;2501;51.214;6.768;2022-10-16T05:15:13;100948.81;;;12.26;99.73
4972;BME280;2501;51.214;6.768;2022-10-16T05:17:44;100959.34;;;12.35;99.98
4972;BME280;2501;51.214;6.768;2022-10-16T05:20:13;100969.88;;;12.35;99.93
4972;BME280;2501;51.214;6.768;2022-10-16T05:22:41;100975.13;;;12.35;99.76
4972;BME280;2501;51.214;6.768;2022-10-16T05:25:09;100975.13;;;12.31;99.78
4972;BME280;2501;51.214;6.768;2022-10-16T05:27:38;100981.25;;;12.30;100.00
4972;BME280;2501;51.214;6.768;2022-10-16T05:30:07;100974.22;;;12.30;100.00
4972;BME280;2501;51.214;6.768;2022-10-16T05:32:35;100971.63;;;12.29;100.00
4972;BME280;2501;51.214;6.768;2022-10-16T05:35:07;100964.59;;;12.28;100.00
4972;BME280;2501;51.214;6.768;2022-10-16T05:37:35;100976.88;;;12.29;100.00
4972;BME280;2501;51.214;6.768;2022-10-16T05:40:05;100979.50;;;12.26;100.00
4972;BME280;2501;51.214;6.768;2022-10-16T05:42:33;100982.13;;;12.21;100.00
4972;BME280;2501;51.214;6.768;2022-10-16T05:45:03;100986.50;;;12.22;100.00
4972;BME280;2501;51.214;6.768;2022-10-16T05:47:32;100997.91;;;12.23;100.00
4972;BME280;2501;51.214;6.768;2022-10-16T05:50:00;100997.03;;;12.24;100.00
4972;BME280;2501;51.214;6.768;2022-10-16T05:52:32;100997.03;;;12.25;100.00
4972;BME280;2501;51.214;6.768;2022-10-16T05:55:00;101000.53;;;12.24;100.00
4972;BME280;2501;51.214;6.768;2022-10-16T05:57:28;101000.50;;;12.18;100.00
4972;BME280;2501;51.214;6.768;2022-10-16T05:59:57;101002.28;;;12.22;100.00
4972;BME280;2501;51.214;6.768;2022-10-16T06:02:25;101026.81;;;12.21;100.00
4972;BME280;2501;51.214;6.768;2022-10-16T06:04:54;101020.69;;;12.22;100.00
4972;BME280;2501;51.214;6.768;2022-10-16T06:07:23;101025.06;;;12.23;100.00
4972;BME280;2501;51.214;6.768;2022-10-16T06:09:54;101022.44;;;12.23;100.00
4972;BME280;2501;51.214;6.768;2022-10-16T06:12:26;101021.53;;;12.19;100.00
4972;BME280;2501;51.214;6.768;2022-10-16T06:14:55;101028.59;;;12.24;100.00
4972;BME280;2501;51.214;6.768;2022-10-16T06:17:23;101026.81;;;12.23;100.00
4972;BME280;2501;51.214;6.768;2022-10-16T06:19:51;101018.94;;;12.23;100.00
4972;BME280;2501;51.214;6.768;2022-10-16T06:22:20;101027.69;;;12.22;100.00
4972;BME280;2501;51.214;6.768;2022-10-16T06:24:48;101031.25;;;12.28;100.00
4972;BME280;2501;51.214;6.768;2022-10-16T06:27:19;101038.25;;;12.32;100.00
4972;BME280;2501;51.214;6.768;2022-10-16T06:29:48;101036.50;;;12.36;100.00
4972;BME280;2501;51.214;6.768;2022-10-16T06:32:16;101029.47;;;12.33;100.00
4972;BME280;2501;51.214;6.768;2022-10-16T06:34:44;101031.25;;;12.37;100.00
4972;BME280;2501;51.214;6.768;2022-10-16T06:37:13;101040.91;;;12.41;100.00
4972;BME280;2501;51.214;6.768;2022-10-16T06:39:46;101043.59;;;12.64;100.00
4972;BME280;2501;51.214;6.768;2022-10-16T06:42:15;101053.22;;;12.58;100.00
4972;BME280;2501;51.214;6.768;2022-10-16T06:44:46;101058.50;;;12.67;100.00
4972;BME280;2501;51.214;6.768;2022-10-16T06:47:14;101060.28;;;12.69;99.97
4972;BME280;2501;51.214;6.768;2022-10-16T06:49:43;101065.56;;;12.80;99.91
4972;BME280;2501;51.214;6.768;2022-10-16T06:52:11;101072.56;;;12.82;99.74
4972;BME280;2501;51.214;6.768;2022-10-16T06:54:39;101079.63;;;12.93;99.46
4972;BME280;2501;51.214;6.768;2022-10-16T06:57:08;101082.28;;;13.06;98.79
4972;BME280;2501;51.214;6.768;2022-10-16T06:59:36;101085.78;;;13.11;98.05
4972;BME280;2501;51.214;6.768;2022-10-16T07:02:08;101080.53;;;13.14;97.81
4972;BME280;2501;51.214;6.768;2022-10-16T07:04:36;101085.84;;;13.16;97.38
4972;BME280;2501;51.214;6.768;2022-10-16T07:07:05;101094.56;;;13.12;97.29
4972;BME280;2501;51.214;6.768;2022-10-16T07:09:33;101097.22;;;13.13;97.25
4972;BME280;2501;51.214;6.768;2022-10-16T07:12:02;101104.22;;;13.08;97.63
4972;BME280;2501;51.214;6.768;2022-10-16T07:14:31;101111.28;;;13.15;97.64
4972;BME280;2501;51.214;6.768;2022-10-16T07:16:59;101111.25;;;13.09;97.87
4972;BME280;2501;51.214;6.768;2022-10-16T07:19:30;101115.63;;;13.10;97.89
4972;BME280;2501;51.214;6.768;2022-10-16T07:22:00;101119.16;;;13.09;97.83
4972;BME280;2501;51.214;6.768;2022-10-16T07:24:28;101125.25;;;13.02;98.22
4972;BME280;2501;51.214;6.768;2022-10-16T07:26:57;101125.25;;;13.01;98.49
4972;BME280;2501;51.214;6.768;2022-10-16T07:29:25;101133.16;;;13.04;98.73
4972;BME280;2501;51.214;6.768;2022-10-16T07:31:54;101136.69;;;12.98;99.23
4972;BME280;2501;51.214;6.768;2022-10-16T07:34:22;101144.59;;;13.04;98.97
4972;BME280;2501;51.214;6.768;2022-10-16T07:36:54;101140.22;;;13.11;98.88
4972;BME280;2501;51.214;6.768;2022-10-16T07:39:22;101142.84;;;13.08;98.96
4972;BME280;2501;51.214;6.768;2022-10-16T07:41:51;101139.28;;;13.00;99.04
4972;BME280;2501;51.214;6.768;2022-10-16T07:44:20;101150.81;;;13.15;98.98
4972;BME280;2501;51.214;6.768;2022-10-16T07:46:48;101156.94;;;13.25;98.63
4972;BME280;2501;51.214;6.768;2022-10-16T07:49:17;101162.22;;;13.34;98.03
4972;BME280;2501;51.214;6.768;2022-10-16T07:51:45;101160.47;;;13.36;97.49
4972;BME280;2501;51.214;6.768;2022-10-16T07:54:16;101156.09;;;13.50;97.02
4972;BME280;2501;51.214;6.768;2022-10-16T07:56:48;101160.47;;;13.54;96.41
4972;BME280;2501;51.214;6.768;2022-10-16T07:59:17;101168.41;;;13.61;96.72
4972;BME280;2501;51.214;6.768;2022-10-16T08:01:46;101176.28;;;13.74;95.67
4972;BME280;2501;51.214;6.768;2022-10-16T08:04:15;101178.03;;;13.87;94.83
4972;BME280;2501;51.214;6.768;2022-10-16T08:06:43;101178.94;;;14.00;94.04
4972;BME280;2501;51.214;6.768;2022-10-16T08:09:12;101180.63;;;14.22;93.27
4972;BME280;2501;51.214;6.768;2022-10-16T08:11:43;101185.88;;;14.42;91.62
4972;BME280;2501;51.214;6.768;2022-10-16T08:14:11;101192.91;;;14.43;91.03
4972;BME280;2501;51.214;6.768;2022-10-16T08:16:40;101190.28;;;14.54;90.54
4972;BME280;2501;51.214;6.768;2022-10-16T08:19:09;101199.94;;;14.52;89.76
4972;BME280;2501;51.214;6.768;2022-10-16T08:21:37;101202.53;;;14.64;88.71
4972;BME280;2501;51.214;6.768;2022-10-16T08:24:06;101201.59;;;14.74;88.16
4972;BME280;2501;51.214;6.768;2022-10-16T08:26:34;101198.97;;;14.74;87.99
4972;BME280;2501;51.214;6.768;2022-10-16T08:29:05;101206.81;;;14.89;88.29
4972;BME280;2501;51.214;6.768;2022-10-16T08:31:34;101201.50;;;15.03;87.10
4972;BME280;2501;51.214;6.768;2022-10-16T08:34:02;101204.94;;;15.17;86.67
4972;BME280;2501;51.214;6.768;2022-10-16T08:36:30;101211.09;;;15.21;86.53
4972;BME280;2501;51.214;6.768;2022-10-16T08:38:59;101215.44;;;15.26;85.14
4972;BME280;2501;51.214;6.768;2022-10-16T08:41:52;101223.16;;;15.63;83.64
4972;BME280;2501;51.214;6.768;2022-10-16T08:44:42;101221.22;;;15.85;83.34
4972;BME280;2501;51.214;6.768;2022-10-16T08:47:17;101225.72;;;15.75;82.07
4972;BME280;2501;51.214;6.768;2022-10-16T08:49:55;101235.03;;;16.19;80.60
4972;BME280;2501;51.214;6.768;2022-10-16T08:52:28;101228.91;;;16.14;80.29
4972;BME280;2501;51.214;6.768;2022-10-16T08:54:57;101235.16;;;16.07;79.48
4972;BME280;2501;51.214;6.768;2022-10-16T08:57:28;101234.28;;;16.08;79.48
4972;BME280;2501;51.214;6.768;2022-10-16T09:00:12;101237.38;;;16.49;78.02
4972;BME280;2501;51.214;6.768;2022-10-16T09:02:48;101241.53;;;16.75;76.27
4972;BME280;2501;51.214;6.768;2022-10-16T09:05:41;101255.84;;;16.55;76.17
4972;BME280;2501;51.214;6.768;2022-10-16T09:08:27;101250.63;;;16.46;76.78
4972;BME280;2501;51.214;6.768;2022-10-16T09:10:59;101248.22;;;16.25;76.30
4972;BME280;2501;51.214;6.768;2022-10-16T09:13:50;101259.44;;;16.47;75.27
4972;BME280;2501;51.214;6.768;2022-10-16T09:16:31;101263.13;;;16.33;75.56
4972;BME280;2501;51.214;6.768;2022-10-16T09:19:09;101251.69;;;16.28;75.44
4972;BME280;2501;51.214;6.768;2022-10-16T09:21:44;101258.56;;;16.48;75.44
4972;BME280;2501;51.214;6.768;2022-10-16T09:24:15;101261.28;;;16.43;74.99
4972;BME280;2501;51.214;6.768;2022-10-16T09:26:44;101267.38;;;16.50;73.62
4972;BME280;2501;51.214;6.768;2022-10-16T09:29:13;101270.91;;;16.50;74.03
4972;BME280;2501;51.214;6.768;2022-10-16T09:31:45;101276.34;;;16.33;74.88
4972;BME280;2501;51.214;6.768;2022-10-16T09:34:17;101276.09;;;16.61;73.89
4972;BME280;2501;51.214;6.768;2022-10-16T09:36:50;101275.28;;;16.53;73.86
4972;BME280;2501;51.214;6.768;2022-10-16T09:39:19;101275.19;;;16.63;74.14
4972;BME280;2501;51.214;6.768;2022-10-16T09:41:48;101270.84;;;16.56;73.62
4972;BME280;2501;51.214;6.768;2022-10-16T09:44:20;101276.19;;;16.50;73.55
4972;BME280;2501;51.214;6.768;2022-10-16T09:47:04;101278.69;;;16.68;73.29
4972;BME280;2501;51.214;6.768;2022-10-16T09:49:33;101268.09;;;16.67;73.15
4972;BME280;2501;51.214;6.768;2022-10-16T09:52:05;101271.63;;;16.66;72.90
4972;BME280;2501;51.214;6.768;2022-10-16T09:54:34;101275.13;;;16.69;73.00
4972;BME280;2501;51.214;6.768;2022-10-16T09:57:07;101276.94;;;16.67;73.06
4972;BME280;2501;51.214;6.768;2022-10-16T09:59:46;101273.31;;;16.78;72.12
4972;BME280;2501;51.214;6.768;2022-10-16T10:02:19;101273.88;;;17.01;71.58
4972;BME280;2501;51.214;6.768;2022-10-16T10:04:50;101265.03;;;17.03;71.13
4972;BME280;2501;51.214;6.768;2022-10-16T10:07:24;101264.09;;;17.08;71.03
4972;BME280;2501;51.214;6.768;2022-10-16T10:09:53;101268.63;;;16.98;71.46
4972;BME280;2501;51.214;6.768;2022-10-16T10:12:24;101269.13;;;17.29;69.72
4972;BME280;2501;51.214;6.768;2022-10-16T10:14:55;101263.19;;;17.09;69.10
4972;BME280;2501;51.214;6.768;2022-10-16T10:17:28;101263.31;;;16.98;69.91
4972;BME280;2501;51.214;6.768;2022-10-16T10:19:58;101265.06;;;16.99;70.11
4972;BME280;2501;51.214;6.768;2022-10-16T10:22:31;101266.72;;;17.11;71.27
4972;BME280;2501;51.214;6.768;2022-10-16T10:25:30;101280.03;;;17.06;70.01
4972;BME280;2501;51.214;6.768;2022-10-16T10:30:56;101272.63;;;16.56;71.31
4972;BME280;2501;51.214;6.768;2022-10-16T10:33:37;101275.16;;;16.68;71.60
4972;BME280;2501;51.214;6.768;2022-10-16T10:36:23;101275.19;;;16.65;71.90
4972;BME280;2501;51.214;6.768;2022-10-16T10:38:57;101270.38;;;16.99;70.04
4972;BME280;2501;51.214;6.768;2022-10-16T10:42:02;101274.69;;;17.08;69.97
4972;BME280;2501;51.214;6.768;2022-10-16T10:44:48;101272.94;;;17.07;70.33
4972;BME280;2501;51.214;6.768;2022-10-16T10:47:27;101278.97;;;17.19;69.75
4972;BME280;2501;51.214;6.768;2022-10-16T10:50:10;101271.25;;;16.99;69.29
4972;BME280;2501;51.214;6.768;2022-10-16T10:52:47;101273.63;;;17.22;69.19
4972;BME280;2501;51.214;6.768;2022-10-16T10:55:25;101276.03;;;17.40;68.36
4972;BME280;2501;51.214;6.768;2022-10-16T11:00:57;101292.84;;;17.38;67.63
4972;BME280;2501;51.214;6.768;2022-10-16T11:03:39;101290.22;;;17.36;66.98
4972;BME280;2501;51.214;6.768;2022-10-16T11:06:17;101291.06;;;17.38;66.75
4972;BME280;2501;51.214;6.768;2022-10-16T11:08:52;101285.78;;;17.38;67.15
4972;BME280;2501;51.214;6.768;2022-10-16T11:11:25;101287.44;;;17.47;67.16
4972;BME280;2501;51.214;6.768;2022-10-16T11:13:57;101293.50;;;17.54;66.71
4972;BME280;2501;51.214;6.768;2022-10-16T11:16:29;101291.63;;;17.63;67.05
4972;BME280;2501;51.214;6.768;2022-10-16T11:19:02;101295.22;;;17.59;66.98
4972;BME280;2501;51.214;6.768;2022-10-16T11:21:41;101283.59;;;17.68;66.05
4972;BME280;2501;51.214;6.768;2022-10-16T11:24:17;101296.28;;;18.06;65.86
4972;BME280;2501;51.214;6.768;2022-10-16T11:26:49;101297.91;;;18.16;63.83
4972;BME280;2501;51.214;6.768;2022-10-16T11:29:25;101292.91;;;17.96;63.15
4972;BME280;2501;51.214;6.768;2022-10-16T11:31:59;101291.28;;;17.86;63.80
4972;BME280;2501;51.214;6.768;2022-10-16T11:34:32;101291.13;;;17.98;63.47
4972;BME280;2501;51.214;6.768;2022-10-16T11:37:11;101288.31;;;18.06;63.04
4972;BME280;2501;51.214;6.768;2022-10-16T11:39:40;101287.16;;;18.22;62.47
4972;BME280;2501;51.214;6.768;2022-10-16T11:42:13;101296.44;;;18.49;61.77
4972;BME280;2501;51.214;6.768;2022-10-16T11:44:51;101303.13;;;18.19;61.90
4972;BME280;2501;51.214;6.768;2022-10-16T11:47:29;101307.97;;;17.96;63.85
4972;BME280;2501;51.214;6.768;2022-10-16T11:50:02;101302.81;;;17.84;63.98
4972;BME280;2501;51.214;6.768;2022-10-16T11:52:40;101295.41;;;18.05;64.18
4972;BME280;2501;51.214;6.768;2022-10-16T11:55:15;101303.13;;;18.19;63.70
4972;BME280;2501;51.214;6.768;2022-10-16T11:57:48;101296.94;;;18.19;62.79
4972;BME280;2501;51.214;6.768;2022-10-16T12:00:22;101293.84;;;17.92;63.46
4972;BME280;2501;51.214;6.768;2022-10-16T12:02:59;101298.06;;;18.05;63.62
4972;BME280;2501;51.214;6.768;2022-10-16T12:05:58;101299.28;;;18.38;62.23
4972;BME280;2501;51.214;6.768;2022-10-16T12:08:33;101309.50;;;18.63;60.81
4972;BME280;2501;51.214;6.768;2022-10-16T12:11:19;101307.38;;;18.32;61.27
4972;BME280;2501;51.214;6.768;2022-10-16T12:13:49;101310.81;;;18.36;61.69
4972;BME280;2501;51.214;6.768;2022-10-16T12:16:22;101317.66;;;18.51;61.03
4972;BME280;2501;51.214;6.768;2022-10-16T12:19:07;101308.63;;;18.62;61.31
4972;BME280;2501;51.214;6.768;2022-10-16T12:21:37;101302.59;;;18.53;61.46
4972;BME280;2501;51.214;6.768;2022-10-16T12:24:21;101300.84;;;18.52;61.49
4972;BME280;2501;51.214;6.768;2022-10-16T12:26:51;101295.69;;;18.90;60.48
4972;BME280;2501;51.214;6.768;2022-10-16T12:29:26;101293.41;;;19.15;59.70
4972;BME280;2501;51.214;6.768;2022-10-16T12:31:57;101297.66;;;19.24;58.63
4972;BME280;2501;51.214;6.768;2022-10-16T12:34:28;101296.66;;;19.71;57.83
4972;BME280;2501;51.214;6.768;2022-10-16T12:37:09;101295.84;;;19.26;59.64
4972;BME280;2501;51.214;6.768;2022-10-16T12:39:41;101288.88;;;19.20;58.91
4972;BME280;2501;51.214;6.768;2022-10-16T12:42:31;101301.75;;;19.80;57.25
4972;BME280;2501;51.214;6.768;2022-10-16T12:45:01;101293.63;;;19.86;57.00
4972;BME280;2501;51.214;6.768;2022-10-16T12:47:38;101297.22;;;20.21;56.05
4972;BME280;2501;51.214;6.768;2022-10-16T12:50:30;101297.09;;;20.25;56.31
4972;BME280;2501;51.214;6.768;2022-10-16T12:53:00;101297.09;;;19.90;56.51
4972;BME280;2501;51.214;6.768;2022-10-16T12:55:45;101301.31;;;19.98;57.51
4972;BME280;2501;51.214;6.768;2022-10-16T12:58:25;101307.56;;;19.59;57.99
4972;BME280;2501;51.214;6.768;2022-10-16T13:00:58;101302.78;;;18.90;60.30
4972;BME280;2501;51.214;6.768;2022-10-16T13:03:53;101306.88;;;19.51;58.95
4972;BME280;2501;51.214;6.768;2022-10-16T13:06:33;101298.31;;;18.92;61.29
4972;BME280;2501;51.214;6.768;2022-10-16T13:12:15;101293.03;;;18.90;60.86
4972;BME280;2501;51.214;6.768;2022-10-16T13:15:07;101300.81;;;19.01;60.51
4972;BME280;2501;51.214;6.768;2022-10-16T13:17:46;101297.81;;;19.58;58.04
4972;BME280;2501;51.214;6.768;2022-10-16T13:20:22;101299.53;;;19.20;58.85
4972;BME280;2501;51.214;6.768;2022-10-16T13:23:01;101303.69;;;19.73;56.70
4972;BME280;2501;51.214;6.768;2022-10-16T13:25:40;101302.72;;;19.76;56.61
4972;BME280;2501;51.214;6.768;2022-10-16T13:28:17;101304.75;;;20.40;54.85
4972;BME280;2501;51.214;6.768;2022-10-16T13:30:52;101302.13;;;20.02;56.41
4972;BME280;2501;51.214;6.768;2022-10-16T13:33:31;101296.13;;;21.84;50.79
4972;BME280;2501;51.214;6.768;2022-10-16T13:36:00;101297.19;;;21.50;52.83
4972;BME280;2501;51.214;6.768;2022-10-16T13:38:30;101304.16;;;20.94;52.87
4972;BME280;2501;51.214;6.768;2022-10-16T13:41:02;101294.09;;;21.35;52.61
4972;BME280;2501;51.214;6.768;2022-10-16T13:43:35;101291.59;;;20.98;53.15